createdAt,value
2022-09-30T00:00:40.799Z,9.90
2022-09-30T00:03:10.905Z,11.93
2022-09-30T00:05:41.166Z,10.50
2022-09-30T00:08:11.212Z,11.17
2022-09-30T00:10:41.299Z,11.13
2022-09-30T00:13:27.997Z,9.73
2022-09-30T00:18:42.930Z,9.20
2022-09-30T00:21:16.029Z,10.07
2022-09-30T00:23:47.922Z,9.90
2022-09-30T00:26:21.658Z,11.00
2022-09-30T00:28:54.622Z,10.73
2022-09-30T00:31:27.072Z,9.67
2022-09-30T00:36:58.355Z,9.77
2022-09-30T00:39:31.607Z,11.30
2022-09-30T00:44:57.493Z,12.00
2022-09-30T00:47:53.000Z,11.20
2022-09-30T00:50:37.560Z,9.77
2022-09-30T00:53:17.437Z,11.53
2022-09-30T00:58:42.122Z,10.53
2022-09-30T01:01:17.886Z,10.00
2022-09-30T01:06:31.593Z,11.23
2022-09-30T01:11:44.843Z,11.20
2022-09-30T01:14:21.687Z,9.80
2022-09-30T01:20:15.903Z,11.23
2022-09-30T01:22:58.734Z,11.37
2022-09-30T01:29:09.873Z,9.23
2022-09-30T01:31:55.841Z,10.77
2022-09-30T01:34:43.224Z,9.47
2022-09-30T01:37:26.266Z,10.63
2022-09-30T01:40:08.181Z,10.30
2022-09-30T01:42:46.042Z,10.53
2022-09-30T01:45:27.020Z,9.67
2022-09-30T01:48:23.349Z,10.47
2022-09-30T01:51:02.463Z,9.03
2022-09-30T01:53:40.348Z,10.03
2022-09-30T01:59:11.195Z,8.70
2022-09-30T02:01:49.624Z,9.60
2022-09-30T02:04:26.953Z,9.17
2022-09-30T02:07:07.255Z,10.07
2022-09-30T02:09:44.613Z,11.37
2022-09-30T02:15:08.882Z,13.80
2022-09-30T02:17:46.843Z,13.93
2022-09-30T02:20:24.370Z,14.37
2022-09-30T02:22:59.776Z,14.07
2022-09-30T02:25:36.667Z,13.53
2022-09-30T02:31:01.002Z,13.57
2022-09-30T02:33:41.071Z,13.40
2022-09-30T02:36:22.801Z,13.93
2022-09-30T02:42:09.105Z,16.37
2022-09-30T02:44:40.566Z,12.20
2022-09-30T02:47:18.778Z,12.80
2022-09-30T02:49:57.896Z,13.53
2022-09-30T02:52:47.108Z,11.67
2022-09-30T02:55:29.300Z,11.30
2022-09-30T02:58:14.351Z,10.93
2022-09-30T03:00:44.571Z,13.10
2022-09-30T03:03:21.852Z,11.70
2022-09-30T03:05:53.509Z,12.50
2022-09-30T03:08:23.982Z,12.00
2022-09-30T03:10:55.749Z,14.00
2022-09-30T03:14:06.450Z,14.57
2022-09-30T03:17:01.158Z,14.50
2022-09-30T03:19:50.027Z,15.20
2022-09-30T03:22:47.533Z,14.40
2022-09-30T03:25:35.276Z,13.90
2022-09-30T03:28:20.787Z,14.80
2022-09-30T03:31:07.724Z,14.37
2022-09-30T03:33:50.870Z,13.10
2022-09-30T03:36:30.490Z,13.17
2022-09-30T03:39:11.841Z,13.33
2022-09-30T03:41:50.468Z,14.47
2022-09-30T03:44:30.744Z,12.47
2022-09-30T03:47:10.561Z,13.33
2022-09-30T03:49:48.584Z,12.80
2022-09-30T03:52:20.137Z,12.47
2022-09-30T03:54:58.778Z,13.57
2022-09-30T03:57:29.502Z,12.57
2022-09-30T04:00:00.458Z,12.90
2022-09-30T04:02:33.064Z,13.27
2022-09-30T04:05:03.164Z,13.63
2022-09-30T04:07:33.237Z,13.50
2022-09-30T04:10:03.727Z,14.00
2022-09-30T04:12:34.031Z,12.70
2022-09-30T04:15:04.057Z,13.87
2022-09-30T04:17:36.895Z,14.93
2022-09-30T04:20:08.078Z,16.50
2022-09-30T04:22:38.115Z,15.57
2022-09-30T04:25:10.520Z,15.20
2022-09-30T04:27:41.316Z,15.60
2022-09-30T04:30:12.936Z,15.67
2022-09-30T04:32:48.232Z,15.57
2022-09-30T04:35:18.805Z,16.77
2022-09-30T04:37:50.260Z,16.47
2022-09-30T04:40:21.152Z,18.57
2022-09-30T04:42:51.196Z,15.50
2022-09-30T04:45:21.766Z,14.87
2022-09-30T04:47:54.548Z,16.80
2022-09-30T04:50:24.873Z,15.23
2022-09-30T04:52:57.298Z,19.10
2022-09-30T04:55:27.410Z,20.23
2022-09-30T04:57:57.679Z,19.87
2022-09-30T05:00:28.009Z,19.03
2022-09-30T05:03:00.644Z,17.90
2022-09-30T05:05:30.705Z,20.50
2022-09-30T05:08:04.371Z,20.93
2022-09-30T05:10:35.422Z,21.57
2022-09-30T05:13:05.465Z,19.63
2022-09-30T05:15:38.100Z,16.63
2022-09-30T05:18:10.700Z,18.07
2022-09-30T05:20:40.716Z,18.33
2022-09-30T05:23:10.962Z,19.00
2022-09-30T05:25:41.164Z,19.40
2022-09-30T05:28:11.511Z,19.90
2022-09-30T05:30:42.101Z,20.13
2022-09-30T05:33:16.390Z,19.57
2022-09-30T05:35:47.671Z,18.17
2022-09-30T05:38:17.733Z,19.47
2022-09-30T05:40:47.762Z,20.30
2022-09-30T05:43:18.914Z,17.70
2022-09-30T05:45:56.485Z,18.80
2022-09-30T05:48:29.524Z,19.63
2022-09-30T05:51:01.804Z,20.90
2022-09-30T05:53:32.921Z,18.53
2022-09-30T05:56:03.150Z,18.20
2022-09-30T05:58:33.771Z,17.80
2022-09-30T06:01:13.544Z,20.43
2022-09-30T06:03:47.961Z,17.50
2022-09-30T06:06:19.180Z,17.37
2022-09-30T06:08:50.427Z,17.57
2022-09-30T06:11:25.078Z,19.47
2022-09-30T06:13:56.312Z,19.50
2022-09-30T06:16:26.941Z,21.73
2022-09-30T06:18:59.596Z,25.70
2022-09-30T06:21:29.742Z,23.77
2022-09-30T06:23:59.788Z,24.70
2022-09-30T06:26:30.189Z,24.50
2022-09-30T06:29:00.236Z,21.13
2022-09-30T06:31:31.263Z,21.23
2022-09-30T06:34:04.703Z,20.30
2022-09-30T06:36:35.241Z,20.67
2022-09-30T06:39:10.294Z,18.77
2022-09-30T06:41:44.239Z,19.20
2022-09-30T06:44:22.145Z,18.60
2022-09-30T06:46:54.131Z,17.40
2022-09-30T06:49:32.085Z,16.67
2022-09-30T06:52:07.667Z,16.50
2022-09-30T06:54:37.661Z,15.00
2022-09-30T06:57:07.963Z,15.13
2022-09-30T06:59:38.277Z,14.90
2022-09-30T07:02:09.051Z,14.93
2022-09-30T07:04:41.757Z,12.83
2022-09-30T07:07:12.243Z,15.23
2022-09-30T07:09:43.503Z,13.40
2022-09-30T07:12:13.895Z,13.40
2022-09-30T07:14:44.053Z,13.70
2022-09-30T07:17:14.080Z,16.80
2022-09-30T07:19:46.761Z,17.10
2022-09-30T07:22:34.534Z,13.40
2022-09-30T07:25:07.331Z,14.23
2022-09-30T07:27:37.520Z,13.70
2022-09-30T07:30:14.137Z,15.13
2022-09-30T07:32:48.350Z,14.60
2022-09-30T07:35:21.704Z,12.67
2022-09-30T07:37:51.711Z,12.13
2022-09-30T07:40:21.914Z,13.40
2022-09-30T07:42:51.966Z,12.30
2022-09-30T07:45:22.284Z,12.40
2022-09-30T07:47:53.897Z,12.60
2022-09-30T07:50:26.709Z,11.27
2022-09-30T07:52:56.836Z,12.30
2022-09-30T07:55:26.898Z,11.47
2022-09-30T07:57:56.910Z,11.87
2022-09-30T08:00:43.163Z,10.77
2022-09-30T08:03:13.446Z,11.73
2022-09-30T08:05:48.670Z,11.40
2022-09-30T08:08:21.117Z,10.93
2022-09-30T08:10:51.199Z,10.37
2022-09-30T08:13:21.275Z,11.03
2022-09-30T08:15:52.195Z,11.60
2022-09-30T08:18:22.307Z,10.50
2022-09-30T08:20:55.029Z,10.70
2022-09-30T08:23:25.180Z,10.47
2022-09-30T08:25:55.303Z,11.57
2022-09-30T08:28:25.844Z,10.73
2022-09-30T08:30:55.836Z,11.07
2022-09-30T08:33:25.989Z,11.13
2022-09-30T08:35:58.781Z,11.10
2022-09-30T08:38:28.891Z,10.70
2022-09-30T08:41:24.563Z,11.87
2022-09-30T08:44:12.801Z,11.13
2022-09-30T08:46:57.443Z,11.60
2022-09-30T08:49:56.996Z,9.90
2022-09-30T08:52:48.415Z,12.30
2022-09-30T08:55:25.864Z,10.60
2022-09-30T08:57:59.320Z,10.90
2022-09-30T09:00:29.424Z,10.80
2022-09-30T09:03:03.277Z,13.73
2022-09-30T09:05:52.493Z,11.67
2022-09-30T09:08:38.737Z,12.83
2022-09-30T09:11:24.020Z,12.93
2022-09-30T09:14:02.431Z,11.97
2022-09-30T09:16:39.058Z,11.77
2022-09-30T09:19:15.361Z,9.80
2022-09-30T09:21:57.305Z,11.50
2022-09-30T09:24:33.104Z,11.67
2022-09-30T09:27:13.385Z,12.40
2022-09-30T09:29:56.084Z,10.97
2022-09-30T09:32:30.448Z,12.43
2022-09-30T09:35:09.510Z,11.93
2022-09-30T09:38:06.935Z,11.30
2022-09-30T09:40:57.628Z,11.37
2022-09-30T09:43:49.510Z,12.60
2022-09-30T09:46:28.140Z,12.17
2022-09-30T09:49:40.125Z,11.43
2022-09-30T09:52:52.942Z,11.70
2022-09-30T09:55:25.726Z,12.50
2022-09-30T09:58:15.057Z,12.20
2022-09-30T10:00:58.245Z,11.90
2022-09-30T10:03:29.695Z,10.00
2022-09-30T10:06:07.585Z,10.90
2022-09-30T10:08:41.299Z,11.03
2022-09-30T10:11:23.781Z,8.90
2022-09-30T10:14:02.421Z,9.03
2022-09-30T10:16:37.731Z,9.67
2022-09-30T10:19:22.780Z,11.67
2022-09-30T10:21:55.302Z,8.00
2022-09-30T10:24:33.282Z,7.77
2022-09-30T10:27:03.622Z,10.07
2022-09-30T10:29:38.465Z,7.47
2022-09-30T10:32:12.241Z,8.50
2022-09-30T10:34:46.901Z,9.27
2022-09-30T10:37:23.576Z,5.63
2022-09-30T10:40:01.530Z,7.63
2022-09-30T10:42:37.066Z,8.90
2022-09-30T10:45:23.491Z,8.73
2022-09-30T10:47:58.367Z,7.87
2022-09-30T10:50:29.658Z,8.23
2022-09-30T10:53:06.208Z,6.37
2022-09-30T10:55:44.373Z,7.67
2022-09-30T10:58:32.668Z,6.57
2022-09-30T11:01:18.087Z,6.40
2022-09-30T11:04:01.405Z,5.23
2022-09-30T11:06:34.891Z,5.10
2022-09-30T11:09:12.819Z,4.07
2022-09-30T11:11:50.241Z,5.10
2022-09-30T11:14:37.024Z,4.00
2022-09-30T11:17:30.681Z,4.57
2022-09-30T11:20:18.030Z,4.40
2022-09-30T11:22:58.131Z,4.20
2022-09-30T11:25:42.615Z,4.00
2022-09-30T11:28:44.589Z,4.80
2022-09-30T11:31:32.318Z,4.43
2022-09-30T11:34:39.606Z,3.83
2022-09-30T11:37:24.498Z,3.57
2022-09-30T11:40:18.073Z,3.60
2022-09-30T11:42:58.738Z,3.93
2022-09-30T11:45:44.239Z,3.60
2022-09-30T11:48:47.956Z,3.43
2022-09-30T11:51:31.476Z,3.30
2022-09-30T11:54:24.146Z,2.63
2022-09-30T11:57:05.360Z,3.60
2022-09-30T11:59:54.358Z,2.90
2022-09-30T12:02:38.278Z,2.60
2022-09-30T12:05:19.588Z,2.90
2022-09-30T12:08:00.544Z,2.27
2022-09-30T12:10:37.630Z,2.83
2022-09-30T12:13:15.036Z,2.90
2022-09-30T12:15:48.305Z,2.90
2022-09-30T12:18:25.869Z,3.27
2022-09-30T12:21:01.452Z,3.23
2022-09-30T12:23:46.118Z,2.73
2022-09-30T12:26:19.383Z,2.47
2022-09-30T12:29:09.872Z,2.13
2022-09-30T12:32:06.387Z,2.80
2022-09-30T12:35:02.137Z,2.83
2022-09-30T12:37:53.298Z,2.70
2022-09-30T12:40:54.908Z,2.33
2022-09-30T12:43:58.659Z,1.93
2022-09-30T12:46:53.109Z,2.63
2022-09-30T12:49:28.252Z,2.70
2022-09-30T12:52:02.945Z,2.70
2022-09-30T12:54:38.205Z,2.53
2022-09-30T12:57:13.364Z,2.30
2022-09-30T12:59:59.404Z,2.53
2022-09-30T13:02:43.330Z,1.83
2022-09-30T13:05:54.502Z,2.93
2022-09-30T13:08:47.423Z,2.27
2022-09-30T13:11:44.315Z,2.30
2022-09-30T13:14:33.572Z,2.20
2022-09-30T13:17:30.709Z,2.00
2022-09-30T13:20:01.079Z,2.10
2022-09-30T13:23:00.528Z,1.90
2022-09-30T13:25:57.072Z,2.03
2022-09-30T13:28:33.743Z,1.90
2022-09-30T13:31:22.081Z,2.20
2022-09-30T13:34:15.259Z,1.60
2022-09-30T13:37:02.949Z,1.83
2022-09-30T13:39:46.697Z,2.47
2022-09-30T13:42:29.955Z,2.30
2022-09-30T13:45:09.262Z,2.57
2022-09-30T13:47:48.006Z,1.63
2022-09-30T13:50:23.884Z,1.77
2022-09-30T13:52:58.991Z,2.50
2022-09-30T13:55:38.448Z,2.60
2022-09-30T13:58:39.295Z,2.43
2022-09-30T14:01:30.358Z,3.00
2022-09-30T14:04:41.045Z,2.37
2022-09-30T14:07:26.386Z,2.37
2022-09-30T14:10:28.554Z,2.07
2022-09-30T14:13:21.712Z,1.90
2022-09-30T14:16:21.741Z,2.30
2022-09-30T14:19:44.996Z,1.80
2022-09-30T14:22:19.192Z,2.40
2022-09-30T14:24:53.057Z,1.93
2022-09-30T14:27:48.180Z,2.50
2022-09-30T14:30:23.665Z,1.90
2022-09-30T14:32:59.549Z,2.33
2022-09-30T14:35:35.506Z,2.37
2022-09-30T14:38:10.627Z,2.07
2022-09-30T14:40:50.736Z,3.03
2022-09-30T14:43:32.624Z,2.30
2022-09-30T14:46:09.884Z,2.10
2022-09-30T14:48:43.210Z,1.70
2022-09-30T14:51:23.569Z,2.67
2022-09-30T14:54:00.916Z,1.73
2022-09-30T14:56:35.610Z,1.67
2022-09-30T14:59:22.134Z,2.03
2022-09-30T15:01:58.170Z,2.40
2022-09-30T15:04:32.379Z,2.23
2022-09-30T15:07:08.037Z,1.90
2022-09-30T15:09:43.571Z,1.87
2022-09-30T15:12:18.344Z,1.67
2022-09-30T15:14:50.883Z,1.97
2022-09-30T15:17:24.056Z,1.80
2022-09-30T15:19:55.820Z,1.97
2022-09-30T15:22:32.037Z,2.00
2022-09-30T15:25:03.011Z,2.00
2022-09-30T15:27:37.057Z,2.30
2022-09-30T15:30:30.119Z,2.53
2022-09-30T15:33:04.548Z,2.67
2022-09-30T15:35:35.912Z,2.37
2022-09-30T15:38:20.828Z,3.37
2022-09-30T15:41:08.850Z,3.43
2022-09-30T15:43:45.409Z,2.90
2022-09-30T15:46:35.471Z,1.90
2022-09-30T15:49:09.212Z,2.73
2022-09-30T15:51:43.659Z,2.40
2022-09-30T15:54:39.401Z,2.50
2022-09-30T15:57:42.158Z,2.27
2022-09-30T16:00:41.617Z,2.67
2022-09-30T16:03:31.204Z,2.17
2022-09-30T16:06:11.848Z,2.10
2022-09-30T16:08:48.159Z,2.87
2022-09-30T16:11:31.189Z,2.83
2022-09-30T16:14:03.301Z,2.10
2022-09-30T16:16:37.732Z,2.27
2022-09-30T16:19:09.669Z,2.13
2022-09-30T16:21:50.718Z,1.90
2022-09-30T16:24:49.953Z,2.20
2022-09-30T16:27:34.785Z,1.90
2022-09-30T16:30:06.610Z,2.17
2022-09-30T16:32:43.066Z,2.40
2022-09-30T16:35:22.376Z,2.60
2022-09-30T16:37:54.118Z,4.50
2022-09-30T16:40:28.812Z,3.40
2022-09-30T16:43:06.602Z,2.80
2022-09-30T16:45:37.824Z,3.00
2022-09-30T16:48:16.893Z,3.27
2022-09-30T16:50:51.739Z,4.27
2022-09-30T16:53:22.080Z,3.57
2022-09-30T16:55:52.544Z,3.70
2022-09-30T16:58:25.472Z,4.20
2022-09-30T17:00:55.766Z,3.60
2022-09-30T17:03:25.908Z,6.40
2022-09-30T17:05:56.002Z,6.27
2022-09-30T17:08:26.684Z,5.90
2022-09-30T17:10:57.897Z,5.27
2022-09-30T17:13:30.515Z,5.83
2022-09-30T17:16:01.971Z,6.80
2022-09-30T17:18:32.111Z,7.70
2022-09-30T17:21:02.304Z,8.17
2022-09-30T17:23:32.461Z,5.40
2022-09-30T17:26:02.523Z,5.27
2022-09-30T17:28:35.530Z,5.53
2022-09-30T17:31:06.320Z,6.20
2022-09-30T17:33:38.533Z,5.27
2022-09-30T17:36:12.501Z,4.80
2022-09-30T17:38:43.440Z,5.30
2022-09-30T17:41:29.470Z,6.60
2022-09-30T17:44:02.718Z,7.90
2022-09-30T17:46:45.346Z,6.77
2022-09-30T17:49:20.723Z,11.10
2022-09-30T17:51:53.999Z,16.87
2022-09-30T17:54:24.330Z,14.13
2022-09-30T17:56:54.464Z,12.10
2022-09-30T17:59:28.722Z,16.40
2022-09-30T18:01:59.271Z,19.00
2022-09-30T18:04:29.711Z,16.13
2022-09-30T18:07:00.033Z,10.00
2022-09-30T18:09:30.300Z,8.30
2022-09-30T18:12:01.140Z,8.37
2022-09-30T18:14:36.086Z,10.57
2022-09-30T18:17:08.491Z,10.23
2022-09-30T18:19:38.923Z,12.80
2022-09-30T18:22:09.156Z,11.80
2022-09-30T18:24:51.669Z,9.50
2022-09-30T18:27:22.820Z,9.80
2022-09-30T18:29:55.452Z,9.50
2022-09-30T18:32:25.476Z,8.57
2022-09-30T18:34:56.391Z,8.83
2022-09-30T18:37:26.655Z,7.57
2022-09-30T18:39:56.795Z,8.93
2022-09-30T18:42:27.560Z,10.13
2022-09-30T18:45:00.212Z,8.33
2022-09-30T18:47:33.425Z,9.47
2022-09-30T18:50:03.492Z,8.80
2022-09-30T18:52:33.502Z,8.77
2022-09-30T18:55:03.533Z,8.10
2022-09-30T18:57:34.241Z,10.37
2022-09-30T19:00:10.350Z,8.33
2022-09-30T19:02:41.629Z,8.37
2022-09-30T19:05:12.837Z,8.87
2022-09-30T19:07:43.409Z,10.00
2022-09-30T19:10:14.737Z,11.50
2022-09-30T19:12:46.237Z,11.20
2022-09-30T19:15:19.336Z,9.77
2022-09-30T19:17:50.792Z,9.77
2022-09-30T19:20:21.112Z,9.50
2022-09-30T19:22:51.926Z,11.17
2022-09-30T19:25:22.283Z,9.23
2022-09-30T19:27:54.370Z,9.10
2022-09-30T19:30:27.031Z,11.17
2022-09-30T19:33:01.845Z,11.90
2022-09-30T19:35:39.902Z,10.67
2022-09-30T19:38:12.364Z,12.67
2022-09-30T19:40:43.519Z,13.93
2022-09-30T19:43:13.718Z,17.17
2022-09-30T19:45:46.426Z,15.90
2022-09-30T19:48:16.640Z,14.93
2022-09-30T19:50:46.643Z,14.53
2022-09-30T19:53:28.014Z,14.17
2022-09-30T19:56:10.415Z,14.40
2022-09-30T19:58:41.724Z,13.60
2022-09-30T20:01:17.592Z,13.33
2022-09-30T20:03:48.037Z,11.00
2022-09-30T20:06:19.887Z,13.33
2022-09-30T20:08:57.224Z,13.80
2022-09-30T20:11:27.641Z,12.00
2022-09-30T20:14:12.301Z,10.63
2022-09-30T20:16:47.682Z,10.07
2022-09-30T20:19:18.964Z,11.80
2022-09-30T20:21:50.106Z,11.43
2022-09-30T20:24:22.516Z,11.70
2022-09-30T20:26:53.013Z,12.33
2022-09-30T20:29:23.142Z,11.73
2022-09-30T20:31:55.990Z,9.97
2022-09-30T20:34:26.156Z,10.63
2022-09-30T20:36:56.205Z,11.47
2022-09-30T20:39:26.474Z,14.57
2022-09-30T20:41:58.577Z,12.47
2022-09-30T20:44:28.771Z,10.20
2022-09-30T20:47:02.151Z,11.70
2022-09-30T20:49:32.737Z,12.23
2022-09-30T20:52:04.099Z,13.00
2022-09-30T20:54:35.592Z,12.40
2022-09-30T20:57:07.541Z,12.10
2022-09-30T20:59:38.121Z,15.57
2022-09-30T21:02:14.107Z,13.50
2022-09-30T21:04:44.602Z,13.90
2022-09-30T21:07:14.659Z,12.80
2022-09-30T21:09:44.719Z,13.60
2022-09-30T21:12:14.763Z,14.07
2022-09-30T21:14:45.037Z,15.70
2022-09-30T21:17:17.876Z,17.17
2022-09-30T21:19:47.893Z,17.40
2022-09-30T21:22:17.909Z,17.83
2022-09-30T21:24:47.996Z,18.10
2022-09-30T21:27:18.019Z,17.23
2022-09-30T21:29:48.044Z,16.47
2022-09-30T21:32:20.694Z,16.43
2022-09-30T21:34:52.245Z,15.70
2022-09-30T21:37:23.240Z,15.03
2022-09-30T21:39:53.319Z,16.33
2022-09-30T21:42:23.400Z,16.40
2022-09-30T21:44:53.473Z,13.80
2022-09-30T21:47:26.109Z,14.80
2022-09-30T21:49:57.514Z,14.60
2022-09-30T21:52:31.989Z,15.37
2022-09-30T21:55:03.119Z,13.70
2022-09-30T21:57:33.132Z,15.30
2022-09-30T22:00:03.729Z,14.67
2022-09-30T22:02:46.924Z,15.83
2022-09-30T22:05:20.544Z,16.57
2022-09-30T22:07:50.990Z,18.20
2022-09-30T22:10:21.044Z,17.10
2022-09-30T22:12:51.206Z,20.03
2022-09-30T22:15:21.503Z,15.87
2022-09-30T22:17:54.590Z,16.87
2022-09-30T22:20:25.665Z,17.73
2022-09-30T22:22:56.943Z,17.40
2022-09-30T22:25:31.809Z,16.17
2022-09-30T22:28:02.046Z,14.90
2022-09-30T22:30:32.722Z,13.20
2022-09-30T22:33:17.994Z,12.40
2022-09-30T22:36:12.566Z,14.63
2022-09-30T22:38:42.666Z,17.27
2022-09-30T22:41:12.693Z,13.73
2022-09-30T22:43:42.736Z,11.97
2022-09-30T22:46:12.811Z,11.70
2022-09-30T22:48:45.511Z,12.57
2022-09-30T22:51:19.644Z,13.40
2022-09-30T22:53:49.701Z,12.60
2022-09-30T22:56:20.189Z,13.53
2022-09-30T22:58:50.470Z,15.70
2022-09-30T23:01:20.648Z,17.80
2022-09-30T23:03:55.808Z,17.30
2022-09-30T23:06:27.350Z,18.10
2022-09-30T23:08:57.457Z,17.33
2022-09-30T23:11:27.667Z,18.00
2022-09-30T23:13:59.307Z,16.47
2022-09-30T23:16:30.069Z,18.57
2022-09-30T23:19:03.788Z,17.23
2022-09-30T23:21:34.287Z,15.70
2022-09-30T23:24:05.292Z,16.87
2022-09-30T23:26:35.666Z,17.33
2022-09-30T23:29:08.987Z,16.80
2022-09-30T23:31:40.086Z,16.27
2022-09-30T23:34:13.221Z,16.87
2022-09-30T23:36:43.571Z,18.13
2022-09-30T23:39:19.418Z,17.47
2022-09-30T23:41:50.702Z,18.60
2022-09-30T23:44:21.185Z,17.27
2022-09-30T23:47:04.472Z,16.87
2022-09-30T23:49:38.449Z,16.67
2022-09-30T23:52:13.018Z,14.73
2022-09-30T23:54:44.388Z,15.93
2022-09-30T23:57:14.833Z,13.13
2022-09-30T23:59:44.938Z,14.73
